Time;durP1;ratioP1;P1;durP2;ratioP2;P2;SDS_P1;SDS_P2;PMS_P1;PMS_P2;Temp;Humidity;BMP_temperature;BMP_pressure;BME280_temperature;BME280_humidity;BME280_pressure;Samples;Min_cycle;Max_cycle;Signal;HPM_P1;HPM_P2
2023/01/05 00:01:05;;;;;;;23.00;3.50;;;9.70;99.90;;;;;;5057541;28;20034;-71
2023/01/05 00:03:32;;;;;;;27.98;3.78;;;9.80;99.90;;;;;;5055399;28;20735;-69
2023/01/05 00:05:59;;;;;;;25.85;4.22;;;9.70;99.90;;;;;;5053639;28;20033;-73
2023/01/05 00:08:25;;;;;;;24.30;3.42;;;9.70;99.90;;;;;;5052632;28;20039;-70
2023/01/05 00:24:32;;;;;;;29.23;4.03;;;9.50;99.90;;;;;;5051668;28;20055;-69
2023/01/05 00:26:58;;;;;;;27.05;4.18;;;9.50;99.90;;;;;;5053997;28;20033;-69
2023/01/05 00:29:23;;;;;;;27.40;4.32;;;9.50;99.90;;;;;;5056119;28;20069;-70
2023/01/05 00:31:49;;;;;;;23.67;4.18;;;9.50;99.90;;;;;;5054416;28;20029;-69
2023/01/05 00:34:14;;;;;;;18.73;4.50;;;9.50;99.90;;;;;;5053719;28;20021;-69
2023/01/05 00:36:40;;;;;;;26.77;4.25;;;9.40;99.90;;;;;;5053822;28;20501;-69
2023/01/05 00:39:06;;;;;;;27.33;4.30;;;9.40;99.90;;;;;;5051225;28;20025;-69
2023/01/05 00:41:31;;;;;;;17.35;3.80;;;9.50;99.90;;;;;;5053472;28;20095;-69
2023/01/05 00:43:57;;;;;;;21.67;2.78;;;9.40;99.90;;;;;;5054934;28;20026;-72
2023/01/05 00:46:22;;;;;;;22.73;4.03;;;9.40;99.90;;;;;;5052545;28;20022;-70
2023/01/05 00:48:48;;;;;;;23.40;3.78;;;9.40;99.90;;;;;;5043558;28;20085;-70
2023/01/05 00:51:13;;;;;;;17.15;2.72;;;9.40;99.90;;;;;;5048961;28;20025;-69
2023/01/05 00:53:39;;;;;;;20.08;3.30;;;9.40;99.90;;;;;;5041179;28;20028;-68
2023/01/05 00:56:05;;;;;;;8.63;2.10;;;9.40;99.90;;;;;;5056864;28;20048;-71
2023/01/05 00:58:30;;;;;;;23.40;3.50;;;9.40;99.90;;;;;;5054391;28;20491;-70
2023/01/05 01:00:56;;;;;;;12.68;2.80;;;9.40;99.90;;;;;;5051288;28;21999;-69
2023/01/05 01:03:21;;;;;;;15.23;2.80;;;9.40;99.90;;;;;;5040707;28;20025;-69
2023/01/05 01:05:56;;;;;;;10.48;2.92;;;9.40;99.90;;;;;;5061650;28;20028;-71
2023/01/05 01:08:22;;;;;;;17.55;2.97;;;9.40;99.90;;;;;;5043597;28;20079;-70
2023/01/05 01:10:47;;;;;;;17.73;2.80;;;9.40;99.90;;;;;;5050509;28;20032;-70
2023/01/05 01:13:13;;;;;;;13.00;3.05;;;9.40;99.90;;;;;;5059749;28;20044;-71
2023/01/05 01:15:38;;;;;;;17.65;2.80;;;9.40;99.90;;;;;;5042449;28;20135;-70
2023/01/05 01:18:04;;;;;;;17.88;3.20;;;9.40;99.90;;;;;;5059349;28;20050;-70
2023/01/05 01:20:29;;;;;;;17.40;3.75;;;9.30;99.90;;;;;;5059889;28;20028;-70
2023/01/05 01:22:55;;;;;;;17.30;3.33;;;9.40;99.90;;;;;;5053313;28;20053;-70
2023/01/05 01:25:21;;;;;;;11.88;2.97;;;9.30;99.90;;;;;;5050569;28;20029;-70
2023/01/05 01:27:47;;;;;;;12.68;3.00;;;9.30;99.90;;;;;;5059452;28;20025;-71
2023/01/05 01:30:13;;;;;;;11.38;3.00;;;9.30;99.90;;;;;;5059651;28;20025;-69
2023/01/05 01:32:39;;;;;;;13.60;2.97;;;9.20;99.90;;;;;;5059830;28;20132;-72
2023/01/05 01:35:05;;;;;;;13.68;2.55;;;9.20;99.90;;;;;;5058418;28;20064;-69
2023/01/05 01:37:30;;;;;;;18.83;3.17;;;9.20;99.90;;;;;;5055595;28;20557;-69
2023/01/05 01:39:59;;;;;;;20.55;3.60;;;9.20;99.90;;;;;;5058399;28;20045;-71
2023/01/05 01:42:25;;;;;;;22.75;3.75;;;9.20;99.90;;;;;;5051200;28;20055;-71
2023/01/05 01:44:57;;;;;;;16.75;3.42;;;9.20;99.90;;;;;;5041787;28;21370;-74
2023/01/05 01:47:41;;;;;;;21.60;3.33;;;9.20;99.90;;;;;;5055784;28;20021;-69
2023/01/05 01:50:26;;;;;;;15.18;3.00;;;9.20;99.90;;;;;;5055373;28;20039;-71
2023/01/05 01:52:57;;;;;;;21.55;3.55;;;9.20;99.90;;;;;;5054525;28;20029;-70
2023/01/05 01:55:23;;;;;;;15.15;3.17;;;9.20;99.90;;;;;;5058963;28;20036;-70
2023/01/05 01:57:50;;;;;;;21.85;3.97;;;9.10;99.90;;;;;;5059527;28;20037;-69
2023/01/05 02:00:17;;;;;;;17.58;4.00;;;9.20;99.90;;;;;;5058633;28;20108;-73
2023/01/05 02:02:45;;;;;;;21.75;3.30;;;9.20;99.90;;;;;;5048392;28;20040;-69
2023/01/05 02:05:13;;;;;;;18.38;3.20;;;9.10;99.90;;;;;;5054095;28;20389;-71
2023/01/05 02:07:45;;;;;;;22.17;3.92;;;9.20;99.90;;;;;;5059247;28;20557;-71
2023/01/05 02:10:11;;;;;;;19.77;3.30;;;9.10;99.90;;;;;;5042483;28;20071;-69
2023/01/05 02:12:49;;;;;;;19.60;3.90;;;9.20;99.90;;;;;;5058992;28;20032;-69
2023/01/05 02:15:33;;;;;;;28.48;4.10;;;9.20;99.90;;;;;;5056302;28;20073;-72
2023/01/05 02:18:20;;;;;;;22.92;4.28;;;9.20;99.90;;;;;;5052026;28;20037;-68
2023/01/05 02:21:04;;;;;;;17.75;4.00;;;9.20;99.90;;;;;;5059081;28;20120;-70
2023/01/05 02:24:06;;;;;;;23.20;3.70;;;9.20;99.90;;;;;;5049822;28;20086;-71
2023/01/05 02:26:49;;;;;;;16.15;2.97;;;9.20;99.90;;;;;;5042206;28;20037;-72
2023/01/05 02:29:33;;;;;;;13.97;3.43;;;9.20;99.90;;;;;;5043939;28;20039;-68
2023/01/05 02:32:19;;;;;;;20.73;3.80;;;9.20;99.90;;;;;;5045395;28;20025;-70
2023/01/05 02:35:12;;;;;;;17.15;4.00;;;9.20;99.90;;;;;;5054447;28;20053;-71
2023/01/05 02:37:49;;;;;;;15.48;3.70;;;9.20;99.90;;;;;;5052134;28;20056;-69
2023/01/05 02:40:23;;;;;;;18.70;3.47;;;9.30;99.90;;;;;;5063691;28;20032;-71
2023/01/05 02:42:52;;;;;;;23.58;3.97;;;9.30;99.90;;;;;;5064029;28;20044;-69
2023/01/05 02:45:21;;;;;;;26.42;3.85;;;9.30;99.90;;;;;;5063693;28;20458;-69
2023/01/05 02:47:47;;;;;;;17.98;3.50;;;9.30;99.90;;;;;;5063382;28;20032;-74
2023/01/05 02:50:28;;;;;;;20.17;3.63;;;9.30;99.90;;;;;;5052315;28;20071;-70
2023/01/05 02:53:06;;;;;;;22.30;3.58;;;9.30;99.90;;;;;;5062577;28;20029;-70
2023/01/05 02:55:42;;;;;;;16.58;3.22;;;9.30;99.90;;;;;;5045147;28;20707;-70
2023/01/05 02:58:21;;;;;;;19.15;3.47;;;9.30;99.90;;;;;;5042149;28;20051;-70
2023/01/05 03:00:52;;;;;;;15.68;3.20;;;9.30;99.90;;;;;;5062560;28;20097;-68
2023/01/05 03:03:41;;;;;;;16.35;3.28;;;9.30;99.90;;;;;;5057144;28;20022;-69
2023/01/05 03:06:13;;;;;;;20.05;3.88;;;9.40;99.90;;;;;;5045268;28;20032;-68
2023/01/05 03:08:49;;;;;;;23.58;3.67;;;9.30;99.90;;;;;;5044344;28;20037;-68
2023/01/05 03:14:11;;;;;;;;;;;9.30;99.90;;;;;;5057623;28;20044;-72
2023/01/05 03:16:38;;;;;;;14.20;3.33;;;9.30;99.90;;;;;;5049540;28;19932;-68
2023/01/05 03:36:04;;;;;;;23.13;4.35;;;9.30;99.90;;;;;;5056460;28;20044;-71
2023/01/05 03:38:44;;;;;;;26.80;4.50;;;9.20;99.90;;;;;;5060822;28;20025;-70
2023/01/05 03:41:13;;;;;;;15.65;3.67;;;9.20;99.90;;;;;;5061402;28;20036;-69
2023/01/05 03:43:40;;;;;;;22.13;4.55;;;9.20;99.90;;;;;;5061558;28;20047;-71
2023/01/05 03:46:15;;;;;;;12.80;3.78;;;9.20;99.90;;;;;;5059371;28;20021;-70
2023/01/05 03:48:41;;;;;;;31.98;5.25;;;9.20;99.90;;;;;;5058457;28;20028;-69
2023/01/05 03:51:07;;;;;;;22.80;3.50;;;9.10;99.90;;;;;;5059812;28;20032;-67
2023/01/05 03:53:33;;;;;;;22.27;4.53;;;9.10;99.90;;;;;;5053055;28;20021;-71
2023/01/05 03:55:58;;;;;;;17.63;3.90;;;9.10;99.90;;;;;;5061345;28;20390;-69
2023/01/05 03:58:24;;;;;;;25.30;4.95;;;9.10;99.90;;;;;;5044215;28;20032;-70
2023/01/05 04:00:50;;;;;;;32.55;4.97;;;9.10;99.90;;;;;;5061419;28;20072;-71
2023/01/05 04:03:16;;;;;;;30.20;4.60;;;9.10;99.90;;;;;;5061575;28;20098;-72
2023/01/05 04:05:41;;;;;;;24.80;4.28;;;9.10;99.90;;;;;;5061071;28;20033;-69
2023/01/05 04:08:07;;;;;;;21.77;4.28;;;9.10;99.90;;;;;;5061369;28;20051;-70
2023/01/05 04:10:32;;;;;;;20.05;4.53;;;9.10;99.90;;;;;;5057493;28;20045;-70
2023/01/05 04:12:58;;;;;;;26.38;5.00;;;9.10;99.90;;;;;;5054733;28;20466;-73
2023/01/05 04:15:24;;;;;;;26.80;4.95;;;9.10;99.90;;;;;;5060858;28;20022;-69
2023/01/05 04:17:49;;;;;;;20.90;4.63;;;9.10;99.90;;;;;;5060780;28;20098;-72
2023/01/05 04:20:15;;;;;;;17.05;3.60;;;9.10;99.90;;;;;;5060948;28;20475;-70
2023/01/05 04:22:41;;;;;;;22.17;4.25;;;9.20;99.90;;;;;;5043997;28;20080;-69
2023/01/05 04:25:07;;;;;;;31.52;4.85;;;9.20;99.90;;;;;;5060273;28;20032;-71
2023/01/05 04:27:33;;;;;;;30.00;4.85;;;9.20;99.90;;;;;;5060777;28;20021;-71
2023/01/05 04:29:58;;;;;;;23.80;4.50;;;9.20;99.90;;;;;;5054334;28;20028;-70
2023/01/05 04:32:24;;;;;;;22.77;4.43;;;9.10;99.90;;;;;;5050854;28;20513;-71
2023/01/05 04:34:49;;;;;;;17.50;4.00;;;9.10;99.90;;;;;;5060420;28;20029;-69
2023/01/05 04:37:15;;;;;;;26.58;4.13;;;9.10;99.90;;;;;;5060399;28;20084;-71
2023/01/05 04:39:41;;;;;;;23.92;4.47;;;9.20;99.90;;;;;;5044655;28;20058;-70
2023/01/05 04:42:07;;;;;;;23.80;4.20;;;9.20;99.90;;;;;;5053893;28;20052;-69
2023/01/05 04:44:32;;;;;;;29.17;4.53;;;9.20;99.90;;;;;;5056870;28;20497;-70
2023/01/05 04:46:58;;;;;;;24.73;4.82;;;9.20;99.90;;;;;;5060479;28;20025;-69
2023/01/05 04:49:23;;;;;;;22.27;4.57;;;9.20;99.90;;;;;;5043361;28;20062;-72
2023/01/05 04:51:49;;;;;;;23.65;4.03;;;9.20;99.90;;;;;;5042746;28;20021;-69
2023/01/05 04:54:14;;;;;;;32.58;5.05;;;9.20;99.90;;;;;;5060173;28;20051;-71
2023/01/05 04:56:40;;;;;;;19.13;3.70;;;9.20;99.90;;;;;;5060014;28;20982;-69
2023/01/05 04:59:05;;;;;;;22.13;4.40;;;9.20;99.90;;;;;;5060225;28;20506;-69
2023/01/05 05:01:41;;;;;;;25.90;4.18;;;9.20;99.90;;;;;;5050968;28;20026;-69
2023/01/05 05:04:06;;;;;;;32.50;4.45;;;9.20;99.90;;;;;;5058870;28;20031;-69
2023/01/05 05:06:32;;;;;;;22.50;4.53;;;9.20;99.90;;;;;;5059246;28;20568;-71
2023/01/05 05:08:57;;;;;;;27.88;4.63;;;9.20;99.90;;;;;;5059685;28;20024;-69
2023/01/05 05:11:23;;;;;;;27.17;4.65;;;9.20;99.90;;;;;;5059901;28;20034;-70
2023/01/05 05:13:49;;;;;;;19.92;3.53;;;9.10;99.90;;;;;;5059890;28;20024;-71
2023/01/05 05:16:15;;;;;;;25.90;4.53;;;9.10;99.90;;;;;;5057334;28;20045;-71
2023/01/05 05:18:40;;;;;;;20.52;4.50;;;9.10;99.90;;;;;;5047521;28;20032;-68
2023/01/05 05:21:06;;;;;;;16.35;4.90;;;9.10;99.90;;;;;;5059059;28;20009;-67
2023/01/05 05:23:31;;;;;;;19.48;4.97;;;9.20;99.90;;;;;;5055647;28;20100;-69
2023/01/05 05:25:57;;;;;;;18.33;4.15;;;9.00;99.90;;;;;;5046676;28;20081;-70
2023/01/05 05:28:26;;;;;;;23.00;4.50;;;9.00;99.90;;;;;;5050512;28;20021;-68
2023/01/05 05:30:54;;;;;;;24.58;4.72;;;9.00;99.90;;;;;;5051421;28;20035;-69
2023/01/05 05:33:20;;;;;;;36.03;4.82;;;9.00;99.90;;;;;;5049453;28;20033;-72
2023/01/05 05:35:45;;;;;;;33.33;5.07;;;9.00;99.90;;;;;;5047125;28;20046;-72
2023/01/05 05:38:11;;;;;;;24.38;4.30;;;9.00;99.90;;;;;;5037546;28;20050;-70
2023/01/05 05:40:37;;;;;;;21.98;4.35;;;9.00;99.90;;;;;;5051518;28;20025;-71
2023/01/05 05:43:03;;;;;;;22.33;4.30;;;9.00;99.90;;;;;;5050829;28;20056;-71
2023/01/05 05:45:28;;;;;;;28.95;4.55;;;9.00;99.90;;;;;;5050701;28;20032;-69
2023/01/05 05:47:54;;;;;;;26.48;4.45;;;9.00;99.90;;;;;;5050585;28;20075;-68
2023/01/05 05:50:20;;;;;;;18.38;3.63;;;9.00;99.90;;;;;;5050761;28;20025;-69
2023/01/05 05:52:45;;;;;;;34.78;5.18;;;9.00;99.90;;;;;;5040783;28;20017;-71
2023/01/05 05:55:11;;;;;;;26.90;4.00;;;9.00;99.90;;;;;;5050806;28;20512;-69
2023/01/05 05:57:37;;;;;;;23.38;3.53;;;9.00;99.90;;;;;;5050702;28;20105;-71
2023/01/05 06:00:03;;;;;;;22.60;3.97;;;9.10;99.90;;;;;;5050482;28;20060;-68
2023/01/05 06:02:29;;;;;;;22.95;3.83;;;9.00;99.90;;;;;;5052111;28;20051;-69
2023/01/05 06:04:55;;;;;;;24.30;4.32;;;9.00;99.90;;;;;;5050835;28;20034;-69
2023/01/05 06:07:20;;;;;;;19.42;3.97;;;9.00;99.90;;;;;;5052851;28;20089;-70
2023/01/05 06:09:46;;;;;;;25.48;4.40;;;9.00;99.90;;;;;;5058741;28;20033;-69
2023/01/05 06:12:11;;;;;;;23.73;4.30;;;9.00;99.90;;;;;;5055796;28;20043;-70
2023/01/05 06:14:37;;;;;;;25.95;4.43;;;9.00;99.90;;;;;;5049588;28;20033;-69
2023/01/05 06:17:02;;;;;;;25.95;4.30;;;9.00;99.90;;;;;;5056336;28;20030;-69
2023/01/05 06:19:28;;;;;;;20.05;4.07;;;9.00;99.90;;;;;;5054974;28;20032;-68
2023/01/05 06:21:54;;;;;;;24.55;3.88;;;9.00;99.90;;;;;;5055032;28;20119;-67
2023/01/05 06:24:19;;;;;;;23.75;3.97;;;8.90;99.90;;;;;;5054587;28;20028;-68
2023/01/05 06:26:46;;;;;;;17.95;3.92;;;8.90;99.90;;;;;;5054451;28;20040;-70
2023/01/05 06:29:11;;;;;;;16.38;2.83;;;9.00;99.90;;;;;;5057713;28;20104;-72
2023/01/05 06:31:37;;;;;;;17.38;3.63;;;8.90;99.90;;;;;;5040353;28;20068;-69
2023/01/05 06:34:03;;;;;;;23.67;3.00;;;8.90;99.90;;;;;;5051445;28;20025;-68
2023/01/05 06:36:28;;;;;;;19.17;3.28;;;8.90;99.90;;;;;;5028937;28;20025;-69
2023/01/05 06:38:54;;;;;;;12.35;3.78;;;8.90;99.90;;;;;;5052216;28;20505;-68
2023/01/05 06:41:19;;;;;;;17.15;3.63;;;8.80;99.90;;;;;;5049552;28;20043;-69
2023/01/05 06:43:45;;;;;;;20.23;3.72;;;8.80;99.90;;;;;;5052359;28;20439;-71
2023/01/05 06:46:11;;;;;;;19.85;3.10;;;8.80;99.90;;;;;;5047808;28;20025;-69
2023/01/05 06:48:36;;;;;;;19.33;2.95;;;8.70;99.90;;;;;;5050362;28;20508;-68
2023/01/05 06:51:02;;;;;;;12.73;2.10;;;8.70;99.90;;;;;;5051790;28;20034;-67
2023/01/05 06:53:28;;;;;;;16.73;2.95;;;8.60;99.90;;;;;;5050638;28;20021;-68
2023/01/05 06:55:53;;;;;;;25.75;3.33;;;8.60;99.90;;;;;;5050013;28;20034;-67
2023/01/05 06:58:19;;;;;;;21.25;3.22;;;8.60;99.90;;;;;;5049136;28;20029;-67
2023/01/05 07:00:44;;;;;;;18.15;2.95;;;8.50;99.90;;;;;;5048816;28;20025;-68
2023/01/05 07:03:13;;;;;;;16.08;2.50;;;8.50;99.90;;;;;;5048864;28;20037;-68
2023/01/05 07:05:39;;;;;;;21.98;2.80;;;8.40;99.90;;;;;;5043132;28;20068;-67
2023/01/05 07:08:05;;;;;;;19.80;2.85;;;8.40;99.90;;;;;;5050947;28;20022;-67
2023/01/05 07:10:31;;;;;;;17.83;2.67;;;8.40;99.90;;;;;;5051267;28;20656;-67
2023/01/05 07:12:57;;;;;;;14.55;2.65;;;8.30;99.90;;;;;;5049811;28;20084;-66
2023/01/05 07:15:22;;;;;;;12.82;2.08;;;8.30;99.90;;;;;;5054324;28;20092;-68
2023/01/05 07:17:48;;;;;;;16.05;2.58;;;8.20;99.90;;;;;;5061922;28;20029;-67
2023/01/05 07:20:13;;;;;;;13.77;2.33;;;8.20;99.90;;;;;;5056248;28;20024;-67
2023/01/05 07:22:39;;;;;;;6.60;1.70;;;8.20;99.90;;;;;;5052071;28;20053;-67
2023/01/05 07:25:05;;;;;;;14.13;2.20;;;8.10;99.90;;;;;;5051607;28;20057;-68
2023/01/05 07:27:31;;;;;;;12.07;2.63;;;8.00;99.90;;;;;;5043314;28;20089;-68
2023/01/05 07:29:56;;;;;;;24.85;2.33;;;8.00;99.90;;;;;;5052923;28;20030;-67
2023/01/05 07:32:22;;;;;;;10.68;1.77;;;8.00;99.90;;;;;;5052711;28;20091;-68
2023/01/05 07:34:47;;;;;;;20.27;2.17;;;8.00;99.90;;;;;;5040501;28;20017;-68
2023/01/05 07:37:14;;;;;;;18.63;1.65;;;8.00;99.90;;;;;;5063245;28;20028;-68
2023/01/05 07:39:39;;;;;;;10.63;1.55;;;7.90;99.90;;;;;;5057103;28;20032;-67
2023/01/05 07:42:05;;;;;;;15.98;1.90;;;7.90;99.90;;;;;;5062277;28;20025;-68
2023/01/05 07:44:30;;;;;;;12.13;2.28;;;7.90;99.90;;;;;;5061138;28;20040;-69
2023/01/05 07:46:57;;;;;;;14.35;2.13;;;7.90;99.90;;;;;;5061631;28;20035;-66
2023/01/05 07:49:23;;;;;;;12.85;2.35;;;7.90;99.90;;;;;;5057968;28;20024;-67
2023/01/05 07:51:48;;;;;;;18.80;2.05;;;7.90;99.90;;;;;;5049086;28;20089;-69
2023/01/05 07:54:14;;;;;;;12.98;2.10;;;7.90;99.90;;;;;;5061797;28;20025;-67
2023/01/05 07:56:40;;;;;;;15.30;2.72;;;7.90;99.90;;;;;;5061532;28;20554;-68
2023/01/05 07:59:05;;;;;;;12.68;2.65;;;7.90;99.90;;;;;;5059692;28;20398;-67
2023/01/05 08:01:31;;;;;;;22.10;2.63;;;7.80;99.90;;;;;;5059119;28;20048;-67
2023/01/05 08:03:56;;;;;;;25.52;3.20;;;7.80;99.90;;;;;;5051303;28;20040;-68
2023/01/05 08:06:22;;;;;;;15.00;2.45;;;7.80;99.90;;;;;;5057495;28;20032;-68
2023/01/05 08:08:48;;;;;;;13.50;1.85;;;7.80;99.90;;;;;;5055143;28;20021;-69
2023/01/05 08:11:15;;;;;;;26.13;2.28;;;7.80;99.90;;;;;;5053122;28;20024;-68
2023/01/05 08:14:01;;;;;;;18.35;2.63;;;7.80;99.90;;;;;;5060837;28;20034;-67
2023/01/05 08:16:29;;;;;;;15.30;2.60;;;7.90;99.90;;;;;;5054005;28;20037;-68
2023/01/05 08:18:54;;;;;;;16.90;2.65;;;8.10;99.90;;;;;;5060990;28;20471;-68
2023/01/05 08:21:20;;;;;;;15.52;1.88;;;8.20;99.90;;;;;;5060509;28;20029;-68
2023/01/05 08:23:46;;;;;;;12.48;1.92;;;8.20;99.90;;;;;;5060812;28;20105;-69
2023/01/05 08:26:14;;;;;;;17.70;1.75;;;8.30;99.90;;;;;;5061989;28;20064;-70
2023/01/05 08:28:40;;;;;;;13.88;2.17;;;8.30;99.90;;;;;;5061207;28;20021;-68
2023/01/05 08:31:09;;;;;;;17.10;2.30;;;8.20;99.90;;;;;;5061947;28;20033;-69
2023/01/05 08:33:35;;;;;;;12.60;2.20;;;8.20;99.90;;;;;;5061764;28;20036;-67
2023/01/05 08:36:00;;;;;;;13.02;2.03;;;8.40;99.90;;;;;;5060955;28;20059;-67
2023/01/05 08:38:26;;;;;;;14.27;2.38;;;8.70;99.90;;;;;;5061559;28;20131;-69
2023/01/05 08:40:52;;;;;;;11.95;1.92;;;8.90;99.90;;;;;;5061728;28;20021;-67
2023/01/05 08:43:18;;;;;;;13.48;2.15;;;9.10;99.90;;;;;;5061955;28;20100;-66
2023/01/05 08:45:48;;;;;;;13.95;1.90;;;9.20;99.90;;;;;;5061981;28;20397;-67
2023/01/05 08:48:15;;;;;;;20.35;2.45;;;9.40;99.90;;;;;;5061371;28;20028;-70
2023/01/05 08:50:40;;;;;;;10.10;1.70;;;9.50;99.90;;;;;;5061603;28;20025;-67
2023/01/05 08:53:06;;;;;;;11.25;2.15;;;9.60;99.90;;;;;;5061510;28;20036;-67
2023/01/05 08:55:31;;;;;;;20.50;1.67;;;9.50;99.90;;;;;;5060443;28;20033;-66
2023/01/05 08:57:57;;;;;;;19.65;2.50;;;9.40;99.90;;;;;;5061454;28;20470;-67
2023/01/05 09:00:23;;;;;;;11.32;1.63;;;9.40;99.90;;;;;;5042853;28;20062;-66
2023/01/05 09:02:48;;;;;;;13.20;1.90;;;9.60;99.90;;;;;;5061046;28;20021;-68
2023/01/05 09:05:15;;;;;;;13.23;1.83;;;9.60;99.90;;;;;;5061266;28;20024;-68
2023/01/05 09:07:40;;;;;;;19.60;2.08;;;9.40;99.90;;;;;;5061424;28;20054;-68
2023/01/05 09:10:07;;;;;;;17.27;2.10;;;9.40;99.90;;;;;;5061178;28;20077;-69
2023/01/05 09:12:36;;;;;;;18.33;2.22;;;9.30;99.90;;;;;;5044014;28;20017;-68
2023/01/05 09:15:03;;;;;;;19.85;2.30;;;9.30;99.90;;;;;;5058805;28;20028;-68
2023/01/05 09:17:28;;;;;;;20.75;1.85;;;9.20;99.90;;;;;;5060336;28;20116;-69
2023/01/05 09:19:54;;;;;;;10.82;1.55;;;9.20;99.90;;;;;;5060386;28;20053;-68
2023/01/05 09:22:20;;;;;;;7.65;1.67;;;9.20;99.90;;;;;;5060822;28;20048;-68
2023/01/05 09:24:46;;;;;;;15.20;1.95;;;9.20;99.90;;;;;;5059166;28;20029;-68
2023/01/05 09:27:11;;;;;;;16.33;2.70;;;9.40;99.90;;;;;;5058623;28;20032;-68
2023/01/05 09:29:37;;;;;;;15.07;2.00;;;9.60;99.90;;;;;;5060998;28;20021;-68
2023/01/05 09:32:03;;;;;;;11.95;1.50;;;9.80;99.90;;;;;;5060217;28;20029;-68
2023/01/05 09:34:29;;;;;;;16.30;2.40;;;10.10;99.90;;;;;;5060953;28;20036;-70
2023/01/05 09:36:55;;;;;;;13.07;2.00;;;10.30;99.90;;;;;;5060967;28;20119;-67
2023/01/05 09:39:21;;;;;;;12.05;2.05;;;10.50;99.90;;;;;;5057192;28;20067;-70
2023/01/05 09:41:49;;;;;;;21.80;2.38;;;10.70;99.90;;;;;;5057889;28;20032;-69
2023/01/05 09:44:38;;;;;;;14.07;2.05;;;10.90;99.90;;;;;;5057566;28;20025;-68
2023/01/05 09:47:26;;;;;;;10.30;1.77;;;11.20;99.90;;;;;;5057053;28;20033;-68
2023/01/05 09:49:53;;;;;;;10.98;1.85;;;11.30;99.90;;;;;;5042290;28;20052;-69
2023/01/05 09:52:21;;;;;;;18.63;2.20;;;11.40;99.90;;;;;;5059724;28;20041;-68
2023/01/05 09:54:47;;;;;;;15.38;2.28;;;11.50;99.90;;;;;;5042627;28;20230;-68
2023/01/05 09:57:25;;;;;;;9.57;1.83;;;11.70;99.90;;;;;;5060242;28;20482;-68
2023/01/05 09:59:56;;;;;;;21.33;1.95;;;11.80;99.90;;;;;;5060090;28;20025;-71
2023/01/05 10:02:48;;;;;;;16.67;1.95;;;12.10;99.90;;;;;;5058656;28;20021;-69
2023/01/05 10:05:15;;;;;;;10.38;1.55;;;12.10;99.90;;;;;;5057109;28;20045;-69
2023/01/05 10:08:03;;;;;;;16.17;1.90;;;12.20;99.90;;;;;;5059959;28;20412;-69
2023/01/05 10:10:45;;;;;;;11.63;1.67;;;12.30;99.90;;;;;;5060155;28;20037;-68
2023/01/05 10:13:24;;;;;;;9.07;1.70;;;12.20;99.90;;;;;;5059063;28;20037;-68
2023/01/05 10:15:54;;;;;;;13.32;1.75;;;12.20;99.90;;;;;;5042905;28;20029;-69
2023/01/05 10:18:24;;;;;;;13.70;1.67;;;12.10;99.90;;;;;;5059335;28;20021;-69
2023/01/05 10:21:08;;;;;;;13.80;2.03;;;12.10;99.90;;;;;;5059814;28;20104;-69
2023/01/05 10:23:56;;;;;;;13.37;1.80;;;11.90;99.90;;;;;;5058646;28;20049;-68
2023/01/05 10:26:25;;;;;;;14.57;1.90;;;12.00;99.90;;;;;;5036252;28;20041;-68
2023/01/05 10:29:14;;;;;;;13.18;2.15;;;12.10;99.90;;;;;;5059777;28;20021;-69
2023/01/05 10:31:51;;;;;;;10.73;1.67;;;12.10;99.90;;;;;;5060218;28;20036;-68
2023/01/05 10:34:48;;;;;;;14.45;1.98;;;12.30;99.90;;;;;;5059588;28;20460;-68
2023/01/05 10:37:40;;;;;;;14.98;1.90;;;12.30;99.90;;;;;;5059779;28;20036;-67
2023/01/05 10:40:32;;;;;;;11.38;1.40;;;12.20;99.90;;;;;;5058469;28;20029;-67
2023/01/05 10:43:15;;;;;;;15.63;1.80;;;12.00;99.90;;;;;;5060013;28;20029;-68
2023/01/05 10:45:41;;;;;;;10.55;1.58;;;11.90;99.90;;;;;;5059992;28;20030;-68
2023/01/05 10:48:16;;;;;;;11.88;1.70;;;11.60;99.90;;;;;;5059637;28;20481;-67
2023/01/05 10:50:43;;;;;;;9.93;1.90;;;11.50;99.90;;;;;;5061310;28;20029;-69
2023/01/05 10:53:13;;;;;;;11.50;1.70;;;11.50;99.90;;;;;;5063821;28;20036;-69
2023/01/05 10:55:56;;;;;;;15.95;2.15;;;11.60;99.90;;;;;;5063548;28;20033;-68
2023/01/05 10:58:39;;;;;;;16.77;1.92;;;11.70;99.90;;;;;;5063834;28;20084;-69
2023/01/05 11:01:23;;;;;;;9.60;1.45;;;11.60;99.90;;;;;;5063321;28;20037;-66
2023/01/05 11:03:51;;;;;;;;;;;11.50;99.90;;;;;;5063309;28;20034;-68
2023/01/05 11:06:27;;;;;;;12.27;1.80;;;11.60;99.90;;;;;;5063252;28;19904;-68
2023/01/05 11:08:54;;;;;;;10.95;1.73;;;11.90;99.90;;;;;;5060736;28;20060;-68
2023/01/05 11:11:24;;;;;;;18.13;2.28;;;12.20;99.90;;;;;;5058576;28;20032;-69
2023/01/05 11:13:55;;;;;;;11.75;2.00;;;12.60;99.90;;;;;;5051198;28;20029;-69
2023/01/05 11:16:31;;;;;;;17.05;2.28;;;13.10;99.90;;;;;;5058906;28;20156;-70
2023/01/05 11:19:02;;;;;;;12.38;1.85;;;13.40;99.90;;;;;;5060313;28;20124;-67
2023/01/05 11:21:38;;;;;;;13.45;1.52;;;13.40;99.90;;;;;;5059949;28;20041;-69
2023/01/05 11:24:24;;;;;;;10.70;1.70;;;13.60;99.90;;;;;;5042837;28;20026;-69
2023/01/05 11:26:52;;;;;;;13.98;1.65;;;13.90;99.90;;;;;;5043134;28;20064;-70
2023/01/05 11:29:18;;;;;;;8.82;1.70;;;13.90;99.90;;;;;;5040281;28;20025;-68
2023/01/05 11:31:49;;;;;;;12.23;1.90;;;13.90;99.90;;;;;;5043613;28;20017;-67
2023/01/05 11:34:44;;;;;;;9.77;1.60;;;14.00;99.90;;;;;;5034642;28;20033;-70
2023/01/05 11:37:25;;;;;;;7.65;1.75;;;13.80;99.90;;;;;;5043843;28;20109;-67
2023/01/05 11:39:55;;;;;;;9.57;1.67;;;13.60;99.90;;;;;;5044142;28;20026;-69
2023/01/05 11:42:24;;;;;;;11.98;1.58;;;13.30;99.90;;;;;;5041617;28;20375;-69
2023/01/05 11:44:56;;;;;;;14.68;2.00;;;13.40;99.90;;;;;;5042993;28;20033;-70
2023/01/05 11:47:26;;;;;;;14.88;2.42;;;13.30;99.90;;;;;;5042923;28;20040;-69
2023/01/05 11:50:06;;;;;;;8.40;1.77;;;13.50;99.90;;;;;;5042102;28;20061;-67
2023/01/05 11:52:40;;;;;;;10.82;2.00;;;14.00;99.90;;;;;;5042627;28;20064;-68
2023/01/05 11:55:24;;;;;;;5.20;1.15;;;14.50;99.90;;;;;;5043561;28;20435;-67
2023/01/05 11:57:53;;;;;;;14.68;1.60;;;14.50;99.90;;;;;;5042986;28;20056;-68
2023/01/05 12:00:38;;;;;;;9.73;1.50;;;14.40;99.90;;;;;;5042417;28;20025;-67
2023/01/05 12:03:25;;;;;;;9.38;1.42;;;14.20;99.90;;;;;;5043340;28;20112;-69
2023/01/05 12:05:56;;;;;;;11.80;1.73;;;13.80;99.90;;;;;;5043471;28;20021;-67
2023/01/05 12:08:47;;;;;;;15.63;1.77;;;13.70;99.90;;;;;;5042081;28;20034;-67
2023/01/05 12:11:21;;;;;;;18.63;1.95;;;13.30;99.90;;;;;;5042983;28;20075;-68
2023/01/05 12:14:18;;;;;;;16.17;2.03;;;12.70;99.90;;;;;;5041238;28;20123;-69
2023/01/05 12:16:55;;;;;;;9.75;1.42;;;12.40;99.90;;;;;;5042130;28;20049;-67
2023/01/05 12:19:58;;;;;;;9.98;1.48;;;12.40;99.90;;;;;;5043380;28;20033;-70
2023/01/05 12:22:41;;;;;;;13.98;1.65;;;12.30;99.90;;;;;;5047003;28;20045;-68
2023/01/05 12:25:55;;;;;;;9.57;1.58;;;12.30;99.90;;;;;;5048753;28;20032;-69
2023/01/05 12:28:23;;;;;;;10.88;1.40;;;12.20;99.90;;;;;;5012843;28;20041;-68
2023/01/05 12:31:26;;;;;;;14.35;1.88;;;12.10;99.90;;;;;;5054660;28;20190;-68
2023/01/05 12:34:33;;;;;;;16.52;2.45;;;12.10;99.90;;;;;;5052324;28;20123;-67
2023/01/05 12:37:23;;;;;;;7.15;1.55;;;11.90;99.90;;;;;;5056887;28;20065;-68
2023/01/05 12:39:54;;;;;;;15.80;1.92;;;11.90;99.90;;;;;;5060749;28;20029;-68
2023/01/05 12:42:46;;;;;;;16.02;1.90;;;12.00;99.90;;;;;;5050273;28;20029;-68
2023/01/05 12:45:40;;;;;;;10.55;1.80;;;12.20;99.90;;;;;;5043841;28;20056;-68
2023/01/05 12:48:21;;;;;;;10.43;1.88;;;12.50;99.90;;;;;;5060158;28;20457;-67
2023/01/05 12:50:56;;;;;;;13.10;2.50;;;12.70;99.90;;;;;;5061070;28;20432;-68
2023/01/05 12:53:36;;;;;;;12.30;1.77;;;12.70;99.90;;;;;;5061136;28;20045;-67
2023/01/05 12:56:37;;;;;;;17.55;2.10;;;12.60;99.90;;;;;;5060920;28;21257;-68
2023/01/05 12:59:29;;;;;;;9.38;1.80;;;12.70;99.90;;;;;;5051334;28;20774;-68
2023/01/05 13:02:06;;;;;;;8.50;1.58;;;12.70;99.90;;;;;;5043290;28;20112;-70
2023/01/05 13:04:44;;;;;;;10.75;1.70;;;13.00;99.90;;;;;;5061331;28;20033;-69
2023/01/05 13:07:20;;;;;;;10.80;2.08;;;12.80;99.90;;;;;;5060961;28;20036;-68
2023/01/05 13:09:55;;;;;;;5.85;1.60;;;12.50;99.90;;;;;;5061246;28;20033;-69
2023/01/05 13:12:21;;;;;;;13.48;1.90;;;11.90;99.90;;;;;;5060439;28;20424;-67
2023/01/05 13:15:03;;;;;;;13.70;2.33;;;11.50;99.90;;;;;;5060977;28;20036;-68
2023/01/05 13:17:33;;;;;;;8.50;2.25;;;11.30;99.90;;;;;;5061295;28;20037;-70
2023/01/05 13:20:15;;;;;;;19.95;2.80;;;11.00;99.90;;;;;;5061515;28;20477;-70
2023/01/05 13:22:43;;;;;;;14.50;2.00;;;10.70;99.90;;;;;;5060710;28;20063;-67
2023/01/05 13:25:11;;;;;;;13.90;1.50;;;10.40;99.90;;;;;;5061205;28;20080;-67
2023/01/05 13:27:37;;;;;;;7.72;1.35;;;10.30;99.90;;;;;;5059854;28;20025;-68
2023/01/05 13:30:04;;;;;;;11.68;2.22;;;10.20;99.90;;;;;;5043595;28;20470;-68
2023/01/05 13:33:12;;;;;;;9.43;1.40;;;10.10;99.90;;;;;;5061120;28;20085;-68
2023/01/05 13:35:49;;;;;;;9.45;1.27;;;10.00;99.90;;;;;;5000212;28;20109;-67
2023/01/05 13:38:25;;;;;;;14.45;1.70;;;9.80;99.90;;;;;;5054126;28;20112;-68